Newberg, Oregon
Current Conditions -  °F | °C
As of 7:53 PM on Wednesday 26 Nov 2014 (Local Time) from KUAO Reporting Station
Scattered Clouds Scattered Clouds  
Wind Chill: 57°   Ceiling: Unl
Heat Index: 57°   Visibility: 10mi
Dew Point: 48°   Wind: 6mph
Humidity: 72%   Direction: 200°SSW
Pressure: 30.02"   Gusts: NA
Location:  45.3°N, 122.97°W
Report Text: KUAO 270353Z AUTO 20005KT 10SM SCT120 14/09 A3002 RMK AO2 SLP167 T01390089
Loading
Personal Weather Stations






























Interactive Weather Map New forecast layout! Learn more

10-Day Weather Forecast

Advertisements
Track Severe Weather on mobile